sensor_id;sensor_type;location;lat;lon;timestamp;temperature;humidity
70246;SHT30;57637;49.272;8.590;2023-07-09T00:01:54;20.69;74.68
70246;SHT30;57637;49.272;8.590;2023-07-09T00:04:19;20.61;74.44
70246;SHT30;57637;49.272;8.590;2023-07-09T00:06:45;20.55;74.49
70246;SHT30;57637;49.272;8.590;2023-07-09T00:09:12;20.59;74.47
70246;SHT30;57637;49.272;8.590;2023-07-09T00:11:39;20.65;74.19
70246;SHT30;57637;49.272;8.590;2023-07-09T00:14:05;20.74;74.06
70246;SHT30;57637;49.272;8.590;2023-07-09T00:16:31;20.82;73.80
70246;SHT30;57637;49.272;8.590;2023-07-09T00:18:57;20.89;73.59
70246;SHT30;57637;49.272;8.590;2023-07-09T00:21:22;20.98;73.27
70246;SHT30;57637;49.272;8.590;2023-07-09T00:23:48;21.05;73.21
70246;SHT30;57637;49.272;8.590;2023-07-09T00:26:16;21.06;73.06
70246;SHT30;57637;49.272;8.590;2023-07-09T00:28:45;21.10;73.05
70246;SHT30;57637;49.272;8.590;2023-07-09T00:31:12;21.06;73.28
70246;SHT30;57637;49.272;8.590;2023-07-09T00:33:39;21.02;73.59
70246;SHT30;57637;49.272;8.590;2023-07-09T00:36:11;20.92;73.76
70246;SHT30;57637;49.272;8.590;2023-07-09T00:38:40;20.88;73.84
70246;SHT30;57637;49.272;8.590;2023-07-09T00:41:08;21.08;73.22
70246;SHT30;57637;49.272;8.590;2023-07-09T00:43:44;21.18;72.38
70246;SHT30;57637;49.272;8.590;2023-07-09T00:48:56;21.19;72.26
70246;SHT30;57637;49.272;8.590;2023-07-09T00:51:30;21.16;72.51
70246;SHT30;57637;49.272;8.590;2023-07-09T00:53:58;21.06;72.80
70246;SHT30;57637;49.272;8.590;2023-07-09T00:56:40;20.84;73.42
70246;SHT30;57637;49.272;8.590;2023-07-09T00:59:10;20.54;74.61
70246;SHT30;57637;49.272;8.590;2023-07-09T01:01:40;20.48;74.82
70246;SHT30;57637;49.272;8.590;2023-07-09T01:04:06;20.64;73.67
70246;SHT30;57637;49.272;8.590;2023-07-09T01:06:53;20.84;72.56
70246;SHT30;57637;49.272;8.590;2023-07-09T01:09:21;20.95;71.36
70246;SHT30;57637;49.272;8.590;2023-07-09T01:11:48;21.00;71.00
70246;SHT30;57637;49.272;8.590;2023-07-09T01:14:14;20.99;70.52
70246;SHT30;57637;49.272;8.590;2023-07-09T01:16:46;20.99;70.34
70246;SHT30;57637;49.272;8.590;2023-07-09T01:19:21;20.94;71.43
70246;SHT30;57637;49.272;8.590;2023-07-09T01:21:48;20.79;72.22
70246;SHT30;57637;49.272;8.590;2023-07-09T01:24:45;20.71;72.37
70246;SHT30;57637;49.272;8.590;2023-07-09T01:27:13;20.65;72.52
70246;SHT30;57637;49.272;8.590;2023-07-09T01:29:39;20.58;73.34
70246;SHT30;57637;49.272;8.590;2023-07-09T01:32:06;20.54;73.97
70246;SHT30;57637;49.272;8.590;2023-07-09T01:34:32;20.44;74.30
70246;SHT30;57637;49.272;8.590;2023-07-09T01:36:58;20.40;74.45
70246;SHT30;57637;49.272;8.590;2023-07-09T01:39:24;20.40;74.70
70246;SHT30;57637;49.272;8.590;2023-07-09T01:41:52;20.35;74.92
70246;SHT30;57637;49.272;8.590;2023-07-09T01:44:18;20.35;74.93
70246;SHT30;57637;49.272;8.590;2023-07-09T01:46:43;20.38;74.53
70246;SHT30;57637;49.272;8.590;2023-07-09T01:49:10;20.37;74.93
70246;SHT30;57637;49.272;8.590;2023-07-09T01:51:35;20.34;74.91
70246;SHT30;57637;49.272;8.590;2023-07-09T01:54:01;20.30;75.17
70246;SHT30;57637;49.272;8.590;2023-07-09T01:56:27;20.24;75.31
70246;SHT30;57637;49.272;8.590;2023-07-09T01:58:54;20.20;75.03
70246;SHT30;57637;49.272;8.590;2023-07-09T02:01:29;20.23;74.89
70246;SHT30;57637;49.272;8.590;2023-07-09T02:03:58;20.18;75.11
70246;SHT30;57637;49.272;8.590;2023-07-09T02:06:24;19.96;75.52
70246;SHT30;57637;49.272;8.590;2023-07-09T02:08:49;19.89;75.36
70246;SHT30;57637;49.272;8.590;2023-07-09T02:11:15;19.77;75.62
70246;SHT30;57637;49.272;8.590;2023-07-09T02:13:40;19.69;75.83
70246;SHT30;57637;49.272;8.590;2023-07-09T02:16:05;19.48;76.45
70246;SHT30;57637;49.272;8.590;2023-07-09T02:18:31;19.43;76.35
70246;SHT30;57637;49.272;8.590;2023-07-09T02:20:56;19.12;77.75
70246;SHT30;57637;49.272;8.590;2023-07-09T02:23:25;19.22;77.40
70246;SHT30;57637;49.272;8.590;2023-07-09T02:25:52;19.26;77.31
70246;SHT30;57637;49.272;8.590;2023-07-09T02:28:17;19.39;77.07
70246;SHT30;57637;49.272;8.590;2023-07-09T02:30:43;19.45;76.42
70246;SHT30;57637;49.272;8.590;2023-07-09T02:33:08;19.58;75.94
70246;SHT30;57637;49.272;8.590;2023-07-09T02:35:33;19.66;75.96
70246;SHT30;57637;49.272;8.590;2023-07-09T02:38:00;19.69;76.18
70246;SHT30;57637;49.272;8.590;2023-07-09T02:40:26;19.70;76.18
70246;SHT30;57637;49.272;8.590;2023-07-09T02:42:51;19.67;76.38
70246;SHT30;57637;49.272;8.590;2023-07-09T02:45:17;19.61;76.40
70246;SHT30;57637;49.272;8.590;2023-07-09T02:47:42;19.51;76.35
70246;SHT30;57637;49.272;8.590;2023-07-09T02:50:08;19.43;76.76
70246;SHT30;57637;49.272;8.590;2023-07-09T02:52:33;19.49;75.73
70246;SHT30;57637;49.272;8.590;2023-07-09T02:54:59;19.73;74.10
70246;SHT30;57637;49.272;8.590;2023-07-09T02:57:24;19.89;73.31
70246;SHT30;57637;49.272;8.590;2023-07-09T02:59:49;19.97;72.60
70246;SHT30;57637;49.272;8.590;2023-07-09T03:02:15;20.04;72.34
70246;SHT30;57637;49.272;8.590;2023-07-09T03:04:40;20.01;72.03
70246;SHT30;57637;49.272;8.590;2023-07-09T03:07:06;20.09;71.86
70246;SHT30;57637;49.272;8.590;2023-07-09T03:09:31;20.13;71.59
70246;SHT30;57637;49.272;8.590;2023-07-09T03:11:57;20.17;71.38
70246;SHT30;57637;49.272;8.590;2023-07-09T03:14:22;20.20;71.19
70246;SHT30;57637;49.272;8.590;2023-07-09T03:16:48;20.21;71.13
70246;SHT30;57637;49.272;8.590;2023-07-09T03:19:13;20.21;71.12
70246;SHT30;57637;49.272;8.590;2023-07-09T03:21:38;20.18;71.02
70246;SHT30;57637;49.272;8.590;2023-07-09T03:24:04;20.20;71.21
70246;SHT30;57637;49.272;8.590;2023-07-09T03:26:29;20.12;72.56
70246;SHT30;57637;49.272;8.590;2023-07-09T03:28:55;19.93;73.70
70246;SHT30;57637;49.272;8.590;2023-07-09T03:31:20;19.69;74.92
70246;SHT30;57637;49.272;8.590;2023-07-09T03:33:47;19.58;75.39
70246;SHT30;57637;49.272;8.590;2023-07-09T03:36:14;19.45;76.16
70246;SHT30;57637;49.272;8.590;2023-07-09T03:38:39;19.38;76.60
70246;SHT30;57637;49.272;8.590;2023-07-09T03:41:05;19.31;77.01
70246;SHT30;57637;49.272;8.590;2023-07-09T03:43:31;19.28;76.44
70246;SHT30;57637;49.272;8.590;2023-07-09T03:45:56;19.36;76.28
70246;SHT30;57637;49.272;8.590;2023-07-09T03:48:22;19.43;76.24
70246;SHT30;57637;49.272;8.590;2023-07-09T03:50:47;19.52;76.06
70246;SHT30;57637;49.272;8.590;2023-07-09T03:53:13;19.56;76.19
70246;SHT30;57637;49.272;8.590;2023-07-09T03:55:40;19.62;76.29
70246;SHT30;57637;49.272;8.590;2023-07-09T03:58:05;19.82;75.70
70246;SHT30;57637;49.272;8.590;2023-07-09T04:00:31;20.01;75.13
70246;SHT30;57637;49.272;8.590;2023-07-09T04:02:57;20.16;74.51
70246;SHT30;57637;49.272;8.590;2023-07-09T04:05:23;20.28;74.71
70246;SHT30;57637;49.272;8.590;2023-07-09T04:07:49;20.47;73.66
70246;SHT30;57637;49.272;8.590;2023-07-09T04:10:14;20.41;73.87
70246;SHT30;57637;49.272;8.590;2023-07-09T04:12:40;20.64;73.27
70246;SHT30;57637;49.272;8.590;2023-07-09T04:15:06;20.78;72.74
70246;SHT30;57637;49.272;8.590;2023-07-09T04:17:33;20.79;72.35
70246;SHT30;57637;49.272;8.590;2023-07-09T04:19:58;20.81;72.36
70246;SHT30;57637;49.272;8.590;2023-07-09T04:22:23;21.06;70.67
70246;SHT30;57637;49.272;8.590;2023-07-09T04:24:49;21.78;68.11
70246;SHT30;57637;49.272;8.590;2023-07-09T04:27:15;22.21;66.64
70246;SHT30;57637;49.272;8.590;2023-07-09T04:29:41;22.62;65.48
70246;SHT30;57637;49.272;8.590;2023-07-09T04:32:13;22.82;64.91
70246;SHT30;57637;49.272;8.590;2023-07-09T04:34:40;22.17;66.46
70246;SHT30;57637;49.272;8.590;2023-07-09T04:37:06;23.04;64.99
70246;SHT30;57637;49.272;8.590;2023-07-09T04:39:33;22.88;64.78
70246;SHT30;57637;49.272;8.590;2023-07-09T04:41:58;23.28;64.25
70246;SHT30;57637;49.272;8.590;2023-07-09T04:44:24;23.53;63.52
70246;SHT30;57637;49.272;8.590;2023-07-09T04:46:50;22.86;64.63
70246;SHT30;57637;49.272;8.590;2023-07-09T04:49:15;21.90;66.72
70246;SHT30;57637;49.272;8.590;2023-07-09T04:51:41;21.86;66.68
70246;SHT30;57637;49.272;8.590;2023-07-09T04:54:06;22.27;65.91
70246;SHT30;57637;49.272;8.590;2023-07-09T04:56:31;22.21;66.08
70246;SHT30;57637;49.272;8.590;2023-07-09T04:58:57;22.52;65.50
70246;SHT30;57637;49.272;8.590;2023-07-09T05:01:23;22.66;64.75
70246;SHT30;57637;49.272;8.590;2023-07-09T05:03:48;22.93;63.91
70246;SHT30;57637;49.272;8.590;2023-07-09T05:06:14;23.06;63.17
70246;SHT30;57637;49.272;8.590;2023-07-09T05:08:39;23.27;62.11
70246;SHT30;57637;49.272;8.590;2023-07-09T05:11:07;23.94;60.66
70246;SHT30;57637;49.272;8.590;2023-07-09T05:13:32;24.30;59.98
70246;SHT30;57637;49.272;8.590;2023-07-09T05:15:58;24.80;58.34
70246;SHT30;57637;49.272;8.590;2023-07-09T05:18:24;25.08;57.01
70246;SHT30;57637;49.272;8.590;2023-07-09T05:20:49;25.30;57.36
70246;SHT30;57637;49.272;8.590;2023-07-09T05:23:14;25.54;56.23
70246;SHT30;57637;49.272;8.590;2023-07-09T05:25:40;25.24;56.44
70246;SHT30;57637;49.272;8.590;2023-07-09T05:28:05;24.82;57.95
70246;SHT30;57637;49.272;8.590;2023-07-09T05:30:31;25.51;56.20
70246;SHT30;57637;49.272;8.590;2023-07-09T05:32:57;24.97;57.04
70246;SHT30;57637;49.272;8.590;2023-07-09T05:35:26;24.83;57.79
70246;SHT30;57637;49.272;8.590;2023-07-09T05:37:55;24.82;57.65
70246;SHT30;57637;49.272;8.590;2023-07-09T05:40:21;25.30;57.51
70246;SHT30;57637;49.272;8.590;2023-07-09T05:42:47;25.41;57.50
70246;SHT30;57637;49.272;8.590;2023-07-09T05:45:13;25.17;58.19
70246;SHT30;57637;49.272;8.590;2023-07-09T05:47:39;25.24;58.27
70246;SHT30;57637;49.272;8.590;2023-07-09T05:50:04;25.44;58.73
70246;SHT30;57637;49.272;8.590;2023-07-09T05:52:30;25.13;59.82
70246;SHT30;57637;49.272;8.590;2023-07-09T05:54:55;25.81;57.49
70246;SHT30;57637;49.272;8.590;2023-07-09T05:57:21;26.59;54.78
70246;SHT30;57637;49.272;8.590;2023-07-09T05:59:47;26.29;56.59
70246;SHT30;57637;49.272;8.590;2023-07-09T06:02:13;26.50;55.55
70246;SHT30;57637;49.272;8.590;2023-07-09T06:04:39;26.56;55.34
70246;SHT30;57637;49.272;8.590;2023-07-09T06:07:05;27.07;54.61
70246;SHT30;57637;49.272;8.590;2023-07-09T06:09:31;27.35;53.68
70246;SHT30;57637;49.272;8.590;2023-07-09T06:11:57;27.95;52.65
70246;SHT30;57637;49.272;8.590;2023-07-09T06:14:22;28.13;52.44
70246;SHT30;57637;49.272;8.590;2023-07-09T06:16:48;28.24;51.96
70246;SHT30;57637;49.272;8.590;2023-07-09T06:19:13;27.92;52.44
70246;SHT30;57637;49.272;8.590;2023-07-09T06:21:39;27.81;53.05
70246;SHT30;57637;49.272;8.590;2023-07-09T06:24:05;28.48;51.56
70246;SHT30;57637;49.272;8.590;2023-07-09T06:26:31;28.84;51.22
70246;SHT30;57637;49.272;8.590;2023-07-09T06:28:56;28.95;50.82
70246;SHT30;57637;49.272;8.590;2023-07-09T06:31:21;29.15;49.61
70246;SHT30;57637;49.272;8.590;2023-07-09T06:33:49;29.25;49.48
70246;SHT30;57637;49.272;8.590;2023-07-09T06:36:16;29.18;49.26
70246;SHT30;57637;49.272;8.590;2023-07-09T06:38:43;29.48;49.27
70246;SHT30;57637;49.272;8.590;2023-07-09T06:41:09;29.65;48.83
70246;SHT30;57637;49.272;8.590;2023-07-09T06:43:35;29.79;48.35
70246;SHT30;57637;49.272;8.590;2023-07-09T06:46:03;29.94;48.73
70246;SHT30;57637;49.272;8.590;2023-07-09T06:48:30;29.76;48.17
70246;SHT30;57637;49.272;8.590;2023-07-09T06:50:57;29.28;49.61
70246;SHT30;57637;49.272;8.590;2023-07-09T06:53:23;29.96;47.90
70246;SHT30;57637;49.272;8.590;2023-07-09T06:55:49;29.35;49.48
70246;SHT30;57637;49.272;8.590;2023-07-09T06:58:15;29.43;49.92
70246;SHT30;57637;49.272;8.590;2023-07-09T07:00:42;29.96;48.43
70246;SHT30;57637;49.272;8.590;2023-07-09T07:03:08;30.14;47.94
70246;SHT30;57637;49.272;8.590;2023-07-09T07:05:34;29.16;50.09
70246;SHT30;57637;49.272;8.590;2023-07-09T07:08:00;29.89;48.85
70246;SHT30;57637;49.272;8.590;2023-07-09T07:10:27;30.31;46.75
70246;SHT30;57637;49.272;8.590;2023-07-09T07:12:53;30.75;46.85
70246;SHT30;57637;49.272;8.590;2023-07-09T07:15:19;28.90;50.48
70246;SHT30;57637;49.272;8.590;2023-07-09T07:17:45;29.11;50.86
70246;SHT30;57637;49.272;8.590;2023-07-09T07:20:11;29.20;49.69
70246;SHT30;57637;49.272;8.590;2023-07-09T07:22:37;30.11;47.81
70246;SHT30;57637;49.272;8.590;2023-07-09T07:25:03;29.33;49.02
70246;SHT30;57637;49.272;8.590;2023-07-09T07:27:30;29.40;49.84
70246;SHT30;57637;49.272;8.590;2023-07-09T07:29:56;29.39;49.32
70246;SHT30;57637;49.272;8.590;2023-07-09T07:32:22;29.49;49.39
70246;SHT30;57637;49.272;8.590;2023-07-09T07:34:48;29.69;48.75
70246;SHT30;57637;49.272;8.590;2023-07-09T07:37:13;30.11;48.37
70246;SHT30;57637;49.272;8.590;2023-07-09T07:39:39;30.68;47.75
70246;SHT30;57637;49.272;8.590;2023-07-09T07:42:04;31.35;46.31
70246;SHT30;57637;49.272;8.590;2023-07-09T07:44:30;31.16;46.18
70246;SHT30;57637;49.272;8.590;2023-07-09T07:46:55;31.26;46.31
70246;SHT30;57637;49.272;8.590;2023-07-09T07:49:21;29.91;48.89
70246;SHT30;57637;49.272;8.590;2023-07-09T07:51:47;30.11;48.47
70246;SHT30;57637;49.272;8.590;2023-07-09T07:54:13;30.33;48.17
70246;SHT30;57637;49.272;8.590;2023-07-09T07:56:38;30.57;47.07
70246;SHT30;57637;49.272;8.590;2023-07-09T07:59:04;31.23;46.24
70246;SHT30;57637;49.272;8.590;2023-07-09T08:01:29;31.83;44.64
70246;SHT30;57637;49.272;8.590;2023-07-09T08:03:55;31.88;44.96
70246;SHT30;57637;49.272;8.590;2023-07-09T08:06:20;31.83;45.31
70246;SHT30;57637;49.272;8.590;2023-07-09T08:08:46;32.28;45.21
70246;SHT30;57637;49.272;8.590;2023-07-09T08:11:12;32.25;45.16
70246;SHT30;57637;49.272;8.590;2023-07-09T08:13:37;32.47;44.50
70246;SHT30;57637;49.272;8.590;2023-07-09T08:16:06;32.06;45.19
70246;SHT30;57637;49.272;8.590;2023-07-09T08:18:32;32.34;44.12
70246;SHT30;57637;49.272;8.590;2023-07-09T08:21:01;31.72;45.07
70246;SHT30;57637;49.272;8.590;2023-07-09T08:23:28;31.54;45.05
70246;SHT30;57637;49.272;8.590;2023-07-09T08:25:56;31.62;45.42
70246;SHT30;57637;49.272;8.590;2023-07-09T08:28:23;32.48;44.32
70246;SHT30;57637;49.272;8.590;2023-07-09T08:30:52;32.34;43.96
70246;SHT30;57637;49.272;8.590;2023-07-09T08:33:19;32.62;44.24
70246;SHT30;57637;49.272;8.590;2023-07-09T08:35:44;32.82;43.85
70246;SHT30;57637;49.272;8.590;2023-07-09T08:38:09;32.37;43.68
70246;SHT30;57637;49.272;8.590;2023-07-09T08:40:42;31.81;44.58
70246;SHT30;57637;49.272;8.590;2023-07-09T08:43:18;31.19;45.23
70246;SHT30;57637;49.272;8.590;2023-07-09T08:46:03;31.97;45.12
70246;SHT30;57637;49.272;8.590;2023-07-09T08:48:38;32.38;44.58
70246;SHT30;57637;49.272;8.590;2023-07-09T08:51:19;32.71;43.43
70246;SHT30;57637;49.272;8.590;2023-07-09T08:53:59;32.29;43.96
70246;SHT30;57637;49.272;8.590;2023-07-09T08:56:26;32.08;43.76
70246;SHT30;57637;49.272;8.590;2023-07-09T08:58:54;31.22;45.70
70246;SHT30;57637;49.272;8.590;2023-07-09T09:04:05;31.49;45.39
70246;SHT30;57637;49.272;8.590;2023-07-09T09:06:38;31.25;45.57
70246;SHT30;57637;49.272;8.590;2023-07-09T09:09:15;32.04;44.06
70246;SHT30;57637;49.272;8.590;2023-07-09T09:12:04;32.15;44.23
70246;SHT30;57637;49.272;8.590;2023-07-09T09:14:41;32.25;43.06
70246;SHT30;57637;49.272;8.590;2023-07-09T09:17:17;32.48;42.90
70246;SHT30;57637;49.272;8.590;2023-07-09T09:22:21;32.66;41.48
70246;SHT30;57637;49.272;8.590;2023-07-09T09:27:27;32.66;41.21
70246;SHT30;57637;49.272;8.590;2023-07-09T09:29:52;32.38;41.73
70246;SHT30;57637;49.272;8.590;2023-07-09T09:34:49;32.20;41.97
70246;SHT30;57637;49.272;8.590;2023-07-09T09:37:21;32.76;41.09
70246;SHT30;57637;49.272;8.590;2023-07-09T09:39:50;33.37;41.09
70246;SHT30;57637;49.272;8.590;2023-07-09T09:42:16;33.54;40.27
70246;SHT30;57637;49.272;8.590;2023-07-09T09:44:45;33.40;38.89
70246;SHT30;57637;49.272;8.590;2023-07-09T09:47:11;33.30;39.54
70246;SHT30;57637;49.272;8.590;2023-07-09T09:49:40;33.29;40.84
70246;SHT30;57637;49.272;8.590;2023-07-09T09:52:13;33.37;41.05
70246;SHT30;57637;49.272;8.590;2023-07-09T09:54:41;33.84;40.33
70246;SHT30;57637;49.272;8.590;2023-07-09T09:57:18;33.86;40.28
70246;SHT30;57637;49.272;8.590;2023-07-09T09:59:46;34.20;39.91
70246;SHT30;57637;49.272;8.590;2023-07-09T10:02:22;34.52;39.05
70246;SHT30;57637;49.272;8.590;2023-07-09T10:04:49;34.49;38.85
70246;SHT30;57637;49.272;8.590;2023-07-09T10:07:22;34.59;37.65
70246;SHT30;57637;49.272;8.590;2023-07-09T10:09:54;34.48;38.80
70246;SHT30;57637;49.272;8.590;2023-07-09T10:20:34;34.45;39.90
70246;SHT30;57637;49.272;8.590;2023-07-09T10:25:54;33.73;39.07
70246;SHT30;57637;49.272;8.590;2023-07-09T10:28:32;34.02;39.79
70246;SHT30;57637;49.272;8.590;2023-07-09T10:34:35;34.78;37.59
70246;SHT30;57637;49.272;8.590;2023-07-09T10:37:21;33.71;38.11
70246;SHT30;57637;49.272;8.590;2023-07-09T10:40:10;34.22;38.98
70246;SHT30;57637;49.272;8.590;2023-07-09T10:45:20;34.51;37.60
70246;SHT30;57637;49.272;8.590;2023-07-09T10:48:16;34.72;37.32
70246;SHT30;57637;49.272;8.590;2023-07-09T10:50:49;35.13;37.87
70246;SHT30;57637;49.272;8.590;2023-07-09T10:56:14;34.58;36.74
70246;SHT30;57637;49.272;8.590;2023-07-09T11:01:38;35.44;36.59
70246;SHT30;57637;49.272;8.590;2023-07-09T11:04:35;35.49;35.83
70246;SHT30;57637;49.272;8.590;2023-07-09T11:06:59;35.16;34.58
70246;SHT30;57637;49.272;8.590;2023-07-09T11:09:32;34.58;35.50
70246;SHT30;57637;49.272;8.590;2023-07-09T11:12:03;34.78;35.74
70246;SHT30;57637;49.272;8.590;2023-07-09T11:14:41;35.32;35.27
70246;SHT30;57637;49.272;8.590;2023-07-09T11:17:21;35.61;35.14
70246;SHT30;57637;49.272;8.590;2023-07-09T11:19:48;35.61;34.06
70246;SHT30;57637;49.272;8.590;2023-07-09T11:25:31;36.08;32.80
70246;SHT30;57637;49.272;8.590;2023-07-09T11:27:51;36.34;32.99
70246;SHT30;57637;49.272;8.590;2023-07-09T11:32:58;36.59;31.67
70246;SHT30;57637;49.272;8.590;2023-07-09T11:35:29;36.53;31.84
70246;SHT30;57637;49.272;8.590;2023-07-09T11:38:15;36.57;31.25
70246;SHT30;57637;49.272;8.590;2023-07-09T11:40:47;35.77;30.52
70246;SHT30;57637;49.272;8.590;2023-07-09T11:45:59;36.05;31.71
70246;SHT30;57637;49.272;8.590;2023-07-09T11:48:32;35.95;31.57
70246;SHT30;57637;49.272;8.590;2023-07-09T11:51:00;35.63;32.87
70246;SHT30;57637;49.272;8.590;2023-07-09T11:56:18;35.78;31.85
70246;SHT30;57637;49.272;8.590;2023-07-09T11:58:51;35.81;31.14
70246;SHT30;57637;49.272;8.590;2023-07-09T12:01:22;35.32;31.46
70246;SHT30;57637;49.272;8.590;2023-07-09T12:03:51;35.51;31.51
70246;SHT30;57637;49.272;8.590;2023-07-09T12:06:18;35.93;31.74
70246;SHT30;57637;49.272;8.590;2023-07-09T12:08:55;35.61;30.60
70246;SHT30;57637;49.272;8.590;2023-07-09T12:11:23;36.00;31.26
70246;SHT30;57637;49.272;8.590;2023-07-09T12:13:54;35.65;31.56
70246;SHT30;57637;49.272;8.590;2023-07-09T12:16:27;35.71;31.84
70246;SHT30;57637;49.272;8.590;2023-07-09T12:18:54;35.26;31.86
70246;SHT30;57637;49.272;8.590;2023-07-09T12:21:20;35.69;31.78
70246;SHT30;57637;49.272;8.590;2023-07-09T12:23:46;35.88;31.02
70246;SHT30;57637;49.272;8.590;2023-07-09T12:26:14;35.73;31.43
70246;SHT30;57637;49.272;8.590;2023-07-09T12:28:41;36.32;31.55
70246;SHT30;57637;49.272;8.590;2023-07-09T12:31:12;36.78;30.17
70246;SHT30;57637;49.272;8.590;2023-07-09T12:33:45;36.32;29.99
70246;SHT30;57637;49.272;8.590;2023-07-09T12:36:14;36.11;29.21
70246;SHT30;57637;49.272;8.590;2023-07-09T12:38:42;35.47;29.71
70246;SHT30;57637;49.272;8.590;2023-07-09T12:41:17;35.87;30.12
70246;SHT30;57637;49.272;8.590;2023-07-09T12:43:45;36.53;30.28
70246;SHT30;57637;49.272;8.590;2023-07-09T12:46:11;37.09;30.09
70246;SHT30;57637;49.272;8.590;2023-07-09T12:48:37;37.23;29.15
70246;SHT30;57637;49.272;8.590;2023-07-09T12:51:06;37.40;29.94
70246;SHT30;57637;49.272;8.590;2023-07-09T12:53:33;37.60;30.14
70246;SHT30;57637;49.272;8.590;2023-07-09T12:56:01;37.70;30.44
70246;SHT30;57637;49.272;8.590;2023-07-09T12:58:30;37.54;30.14
70246;SHT30;57637;49.272;8.590;2023-07-09T13:00:57;37.15;29.92
70246;SHT30;57637;49.272;8.590;2023-07-09T13:03:29;36.52;30.59
70246;SHT30;57637;49.272;8.590;2023-07-09T13:08:25;36.21;31.39
70246;SHT30;57637;49.272;8.590;2023-07-09T13:10:52;36.68;31.09
70246;SHT30;57637;49.272;8.590;2023-07-09T13:13:20;36.72;30.58
70246;SHT30;57637;49.272;8.590;2023-07-09T13:18:22;36.46;30.77
70246;SHT30;57637;49.272;8.590;2023-07-09T13:20:49;36.69;29.96
70246;SHT30;57637;49.272;8.590;2023-07-09T13:23:25;36.79;29.88
70246;SHT30;57637;49.272;8.590;2023-07-09T13:25:52;36.79;27.73
70246;SHT30;57637;49.272;8.590;2023-07-09T13:28:22;36.31;27.55
70246;SHT30;57637;49.272;8.590;2023-07-09T13:30:56;36.62;27.45
70246;SHT30;57637;49.272;8.590;2023-07-09T13:33:25;36.55;27.20
70246;SHT30;57637;49.272;8.590;2023-07-09T13:35:51;36.46;27.63
70246;SHT30;57637;49.272;8.590;2023-07-09T13:38:20;37.06;27.81
70246;SHT30;57637;49.272;8.590;2023-07-09T13:40:47;36.80;27.90
70246;SHT30;57637;49.272;8.590;2023-07-09T13:43:17;36.31;28.82
70246;SHT30;57637;49.272;8.590;2023-07-09T13:45:45;36.14;28.81
70246;SHT30;57637;49.272;8.590;2023-07-09T13:48:20;36.57;29.14
70246;SHT30;57637;49.272;8.590;2023-07-09T13:50:47;36.39;28.87
70246;SHT30;57637;49.272;8.590;2023-07-09T13:53:16;36.49;28.62
70246;SHT30;57637;49.272;8.590;2023-07-09T13:55:43;37.06;28.91
70246;SHT30;57637;49.272;8.590;2023-07-09T13:58:10;37.17;27.85
70246;SHT30;57637;49.272;8.590;2023-07-09T14:00:37;37.57;27.83
70246;SHT30;57637;49.272;8.590;2023-07-09T14:03:07;37.74;26.66
70246;SHT30;57637;49.272;8.590;2023-07-09T14:05:44;37.38;26.84
70246;SHT30;57637;49.272;8.590;2023-07-09T14:08:12;36.87;27.38
70246;SHT30;57637;49.272;8.590;2023-07-09T14:10:38;37.03;27.31
70246;SHT30;57637;49.272;8.590;2023-07-09T14:13:04;37.43;26.64
70246;SHT30;57637;49.272;8.590;2023-07-09T14:15:30;37.25;25.90
70246;SHT30;57637;49.272;8.590;2023-07-09T14:17:56;37.10;26.28
70246;SHT30;57637;49.272;8.590;2023-07-09T14:20:21;37.02;26.39
70246;SHT30;57637;49.272;8.590;2023-07-09T14:22:48;37.43;26.36
70246;SHT30;57637;49.272;8.590;2023-07-09T14:25:18;37.31;26.53
70246;SHT30;57637;49.272;8.590;2023-07-09T14:27:47;37.09;26.70
70246;SHT30;57637;49.272;8.590;2023-07-09T14:30:16;37.16;26.76
70246;SHT30;57637;49.272;8.590;2023-07-09T14:32:44;37.43;26.03
70246;SHT30;57637;49.272;8.590;2023-07-09T14:35:19;37.66;26.48
70246;SHT30;57637;49.272;8.590;2023-07-09T14:37:48;38.17;25.50
70246;SHT30;57637;49.272;8.590;2023-07-09T14:40:14;38.35;25.41
70246;SHT30;57637;49.272;8.590;2023-07-09T14:42:42;38.68;25.55
70246;SHT30;57637;49.272;8.590;2023-07-09T14:45:24;38.76;25.79
70246;SHT30;57637;49.272;8.590;2023-07-09T14:47:53;37.38;26.06
70246;SHT30;57637;49.272;8.590;2023-07-09T14:50:19;37.48;26.00
70246;SHT30;57637;49.272;8.590;2023-07-09T14:52:47;37.16;26.41
70246;SHT30;57637;49.272;8.590;2023-07-09T14:55:13;37.20;26.63
70246;SHT30;57637;49.272;8.590;2023-07-09T14:57:43;36.96;26.67
70246;SHT30;57637;49.272;8.590;2023-07-09T15:00:13;36.87;27.04
70246;SHT30;57637;49.272;8.590;2023-07-09T15:02:49;36.93;26.79
70246;SHT30;57637;49.272;8.590;2023-07-09T15:05:20;37.19;26.19
70246;SHT30;57637;49.272;8.590;2023-07-09T15:07:47;37.25;26.62
70246;SHT30;57637;49.272;8.590;2023-07-09T15:10:22;37.22;26.55
70246;SHT30;57637;49.272;8.590;2023-07-09T15:12:49;37.44;26.06
70246;SHT30;57637;49.272;8.590;2023-07-09T15:15:23;37.43;26.95
70246;SHT30;57637;49.272;8.590;2023-07-09T15:17:49;37.58;26.70
70246;SHT30;57637;49.272;8.590;2023-07-09T15:22:41;37.23;26.72
70246;SHT30;57637;49.272;8.590;2023-07-09T15:25:12;37.22;26.64
70246;SHT30;57637;49.272;8.590;2023-07-09T15:27:44;37.16;26.95
70246;SHT30;57637;49.272;8.590;2023-07-09T15:30:19;37.37;27.22
70246;SHT30;57637;49.272;8.590;2023-07-09T15:32:47;37.12;27.15
70246;SHT30;57637;49.272;8.590;2023-07-09T15:35:14;37.25;27.23
70246;SHT30;57637;49.272;8.590;2023-07-09T15:37:41;37.53;26.90
70246;SHT30;57637;49.272;8.590;2023-07-09T15:40:16;37.48;27.26
70246;SHT30;57637;49.272;8.590;2023-07-09T15:42:44;37.74;26.66
70246;SHT30;57637;49.272;8.590;2023-07-09T15:45:13;38.04;26.70
70246;SHT30;57637;49.272;8.590;2023-07-09T15:47:39;38.35;26.23
70246;SHT30;57637;49.272;8.590;2023-07-09T15:50:39;37.89;26.05
70246;SHT30;57637;49.272;8.590;2023-07-09T15:52:59;38.14;26.51
70246;SHT30;57637;49.272;8.590;2023-07-09T15:55:24;37.68;26.18
70246;SHT30;57637;49.272;8.590;2023-07-09T15:57:52;37.30;26.83
70246;SHT30;57637;49.272;8.590;2023-07-09T16:00:21;37.20;26.92
70246;SHT30;57637;49.272;8.590;2023-07-09T16:02:51;36.90;27.18
70246;SHT30;57637;49.272;8.590;2023-07-09T16:05:24;36.85;27.65
70246;SHT30;57637;49.272;8.590;2023-07-09T16:07:50;36.93;27.08
70246;SHT30;57637;49.272;8.590;2023-07-09T16:10:17;36.71;27.65
70246;SHT30;57637;49.272;8.590;2023-07-09T16:12:43;36.90;27.82
70246;SHT30;57637;49.272;8.590;2023-07-09T16:15:12;37.13;27.52
70246;SHT30;57637;49.272;8.590;2023-07-09T16:17:40;36.90;27.21
70246;SHT30;57637;49.272;8.590;2023-07-09T16:20:07;36.93;27.13
70246;SHT30;57637;49.272;8.590;2023-07-09T16:22:40;36.87;27.31
70246;SHT30;57637;49.272;8.590;2023-07-09T16:25:14;36.76;27.24
70246;SHT30;57637;49.272;8.590;2023-07-09T16:27:41;36.78;27.67
70246;SHT30;57637;49.272;8.590;2023-07-09T16:30:16;36.96;27.70
70246;SHT30;57637;49.272;8.590;2023-07-09T16:32:45;37.06;28.39